sensor_id;sensor_type;location;lat;lon;timestamp;pressure;altitude;pressure_sealevel;temperature;humidity
50105;BME280;47690;39.202;-77.198;2022-07-18T00:02:00;100079.38;;;28.58;87.07
50105;BME280;47690;39.202;-77.198;2022-07-18T00:04:33;100079.69;;;28.55;87.41
50105;BME280;47690;39.202;-77.198;2022-07-18T00:07:04;100076.34;;;28.53;87.28
50105;BME280;47690;39.202;-77.198;2022-07-18T00:09:33;100069.53;;;28.51;87.54
50105;BME280;47690;39.202;-77.198;2022-07-18T00:12:08;100073.28;;;28.48;87.56
50105;BME280;47690;39.202;-77.198;2022-07-18T00:15:03;100065.34;;;28.48;87.78
50105;BME280;47690;39.202;-77.198;2022-07-18T00:17:44;100070.25;;;28.43;87.90
50105;BME280;47690;39.202;-77.198;2022-07-18T00:21:05;100071.34;;;28.40;87.88
50105;BME280;47690;39.202;-77.198;2022-07-18T00:23:34;100065.69;;;28.35;87.91
50105;BME280;47690;39.202;-77.198;2022-07-18T00:26:10;100058.97;;;28.31;88.14
50105;BME280;47690;39.202;-77.198;2022-07-18T00:28:45;100071.53;;;28.29;88.46
50105;BME280;47690;39.202;-77.198;2022-07-18T00:31:37;100062.75;;;28.28;88.54
50105;BME280;47690;39.202;-77.198;2022-07-18T00:34:21;100071.00;;;28.25;88.65
50105;BME280;47690;39.202;-77.198;2022-07-18T00:36:50;100075.75;;;28.21;88.77
50105;BME280;47690;39.202;-77.198;2022-07-18T00:39:49;100074.06;;;28.20;88.63
50105;BME280;47690;39.202;-77.198;2022-07-18T00:42:21;100079.59;;;28.17;88.78
50105;BME280;47690;39.202;-77.198;2022-07-18T00:44:55;100078.94;;;28.15;89.09
50105;BME280;47690;39.202;-77.198;2022-07-18T00:47:30;100079.19;;;28.12;89.04
50105;BME280;47690;39.202;-77.198;2022-07-18T00:50:22;100082.00;;;28.11;89.17
50105;BME280;47690;39.202;-77.198;2022-07-18T00:52:56;100084.22;;;28.05;88.87
50105;BME280;47690;39.202;-77.198;2022-07-18T00:55:29;100080.91;;;28.03;89.36
50105;BME280;47690;39.202;-77.198;2022-07-18T00:58:00;100078.50;;;28.00;89.31
50105;BME280;47690;39.202;-77.198;2022-07-18T01:00:32;100087.44;;;27.99;89.59
50105;BME280;47690;39.202;-77.198;2022-07-18T01:03:25;100089.41;;;27.97;89.57
50105;BME280;47690;39.202;-77.198;2022-07-18T01:06:01;100081.72;;;27.94;89.66
50105;BME280;47690;39.202;-77.198;2022-07-18T01:09:00;100096.91;;;27.92;89.65
50105;BME280;47690;39.202;-77.198;2022-07-18T01:11:43;100093.44;;;27.91;90.03
50105;BME280;47690;39.202;-77.198;2022-07-18T01:14:18;100102.50;;;27.89;90.05
50105;BME280;47690;39.202;-77.198;2022-07-18T01:17:14;100107.94;;;27.87;90.08
50105;BME280;47690;39.202;-77.198;2022-07-18T01:20:19;100127.44;;;27.86;89.98
50105;BME280;47690;39.202;-77.198;2022-07-18T01:22:51;100124.22;;;27.83;90.08
50105;BME280;47690;39.202;-77.198;2022-07-18T01:25:26;100119.06;;;27.81;90.37
50105;BME280;47690;39.202;-77.198;2022-07-18T01:28:05;100125.63;;;27.77;90.46
50105;BME280;47690;39.202;-77.198;2022-07-18T01:30:56;100112.53;;;27.75;90.38
50105;BME280;47690;39.202;-77.198;2022-07-18T01:33:32;100113.91;;;27.70;90.60
50105;BME280;47690;39.202;-77.198;2022-07-18T01:36:14;100112.25;;;27.68;90.18
50105;BME280;47690;39.202;-77.198;2022-07-18T01:39:51;100110.56;;;27.67;90.26
50105;BME280;47690;39.202;-77.198;2022-07-18T01:42:58;100108.19;;;27.64;90.20
50105;BME280;47690;39.202;-77.198;2022-07-18T01:46:51;100130.47;;;27.62;89.84
50105;BME280;47690;39.202;-77.198;2022-07-18T01:49:42;100131.56;;;27.59;89.80
50105;BME280;47690;39.202;-77.198;2022-07-18T01:52:26;100138.81;;;27.57;89.75
50105;BME280;47690;39.202;-77.198;2022-07-18T01:55:25;100132.81;;;27.55;89.75
50105;BME280;47690;39.202;-77.198;2022-07-18T01:58:25;100127.66;;;27.53;89.62
50105;BME280;47690;39.202;-77.198;2022-07-18T02:00:57;100133.06;;;27.52;89.68
50105;BME280;47690;39.202;-77.198;2022-07-18T02:03:30;100127.94;;;27.50;89.53
50105;BME280;47690;39.202;-77.198;2022-07-18T02:06:02;100125.53;;;27.47;89.71
50105;BME280;47690;39.202;-77.198;2022-07-18T02:08:47;100129.03;;;27.48;89.85
50105;BME280;47690;39.202;-77.198;2022-07-18T02:11:31;100154.75;;;27.46;89.63
50105;BME280;47690;39.202;-77.198;2022-07-18T02:14:33;100164.66;;;27.44;89.56
50105;BME280;47690;39.202;-77.198;2022-07-18T02:17:05;100158.53;;;27.43;89.02
50105;BME280;47690;39.202;-77.198;2022-07-18T02:19:41;100148.09;;;27.41;89.13
50105;BME280;47690;39.202;-77.198;2022-07-18T02:22:43;100142.94;;;27.40;89.05
50105;BME280;47690;39.202;-77.198;2022-07-18T02:26:38;100134.44;;;27.36;88.95
50105;BME280;47690;39.202;-77.198;2022-07-18T02:29:20;100128.00;;;27.29;89.22
50105;BME280;47690;39.202;-77.198;2022-07-18T02:32:02;100123.69;;;27.28;89.13
50105;BME280;47690;39.202;-77.198;2022-07-18T02:35:22;100119.38;;;27.27;89.11
50105;BME280;47690;39.202;-77.198;2022-07-18T02:38:51;100108.53;;;27.20;89.25
50105;BME280;47690;39.202;-77.198;2022-07-18T02:41:30;100108.91;;;27.16;89.58
50105;BME280;47690;39.202;-77.198;2022-07-18T02:44:45;100109.06;;;27.14;89.45
50105;BME280;47690;39.202;-77.198;2022-07-18T02:47:54;100115.84;;;27.07;89.48
50105;BME280;47690;39.202;-77.198;2022-07-18T02:50:52;100122.25;;;27.04;89.40
50105;BME280;47690;39.202;-77.198;2022-07-18T02:54:02;100120.81;;;27.00;89.68
50105;BME280;47690;39.202;-77.198;2022-07-18T02:57:09;100114.00;;;26.97;90.07
50105;BME280;47690;39.202;-77.198;2022-07-18T03:00:20;100114.41;;;26.93;89.63
50105;BME280;47690;39.202;-77.198;2022-07-18T03:03:26;100120.19;;;26.86;89.81
50105;BME280;47690;39.202;-77.198;2022-07-18T03:07:21;100121.16;;;26.85;89.67
50105;BME280;47690;39.202;-77.198;2022-07-18T03:10:10;100102.94;;;26.82;90.04
50105;BME280;47690;39.202;-77.198;2022-07-18T03:13:00;100108.47;;;26.79;89.73
50105;BME280;47690;39.202;-77.198;2022-07-18T03:15:34;100110.53;;;26.76;90.01
50105;BME280;47690;39.202;-77.198;2022-07-18T03:18:33;100106.38;;;26.73;89.74
50105;BME280;47690;39.202;-77.198;2022-07-18T03:21:30;100091.63;;;26.70;89.91
50105;BME280;47690;39.202;-77.198;2022-07-18T03:24:24;100079.50;;;26.68;90.01
50105;BME280;47690;39.202;-77.198;2022-07-18T03:27:31;100096.59;;;26.64;90.28
50105;BME280;47690;39.202;-77.198;2022-07-18T03:30:49;100081.47;;;26.66;89.63
50105;BME280;47690;39.202;-77.198;2022-07-18T03:33:22;100074.47;;;26.55;90.34
50105;BME280;47690;39.202;-77.198;2022-07-18T03:36:05;100073.59;;;26.54;90.28
50105;BME280;47690;39.202;-77.198;2022-07-18T03:39:39;100078.44;;;26.49;90.36
50105;BME280;47690;39.202;-77.198;2022-07-18T03:42:42;100075.78;;;26.49;90.30
50105;BME280;47690;39.202;-77.198;2022-07-18T03:45:38;100062.03;;;26.45;90.68
50105;BME280;47690;39.202;-77.198;2022-07-18T03:49:06;100062.28;;;26.42;90.70
50105;BME280;47690;39.202;-77.198;2022-07-18T03:52:10;100068.94;;;26.37;90.54
50105;BME280;47690;39.202;-77.198;2022-07-18T03:54:53;100079.75;;;26.34;89.96
50105;BME280;47690;39.202;-77.198;2022-07-18T03:57:30;100086.97;;;26.31;90.36
50105;BME280;47690;39.202;-77.198;2022-07-18T04:00:13;100095.59;;;26.34;90.12
50105;BME280;47690;39.202;-77.198;2022-07-18T04:02:56;100100.88;;;26.34;90.31
50105;BME280;47690;39.202;-77.198;2022-07-18T04:05:46;100103.28;;;26.37;90.05
50105;BME280;47690;39.202;-77.198;2022-07-18T04:08:37;100108.66;;;26.35;89.81
50105;BME280;47690;39.202;-77.198;2022-07-18T04:11:27;100100.06;;;26.33;89.73
50105;BME280;47690;39.202;-77.198;2022-07-18T04:14:17;100089.59;;;26.31;89.73
50105;BME280;47690;39.202;-77.198;2022-07-18T04:17:23;100094.19;;;26.29;89.79
50105;BME280;47690;39.202;-77.198;2022-07-18T04:20:14;100103.19;;;26.27;89.82
50105;BME280;47690;39.202;-77.198;2022-07-18T04:22:53;100100.81;;;26.24;89.90
50105;BME280;47690;39.202;-77.198;2022-07-18T04:25:43;100096.50;;;26.23;89.99
50105;BME280;47690;39.202;-77.198;2022-07-18T04:28:30;100094.22;;;26.18;90.26
50105;BME280;47690;39.202;-77.198;2022-07-18T04:31:01;100101.44;;;26.16;90.70
50105;BME280;47690;39.202;-77.198;2022-07-18T04:33:53;100091.00;;;26.14;90.37
50105;BME280;47690;39.202;-77.198;2022-07-18T04:36:50;100097.38;;;26.12;90.68
50105;BME280;47690;39.202;-77.198;2022-07-18T04:39:54;100090.41;;;26.11;90.37
50105;BME280;47690;39.202;-77.198;2022-07-18T04:42:28;100083.59;;;26.08;90.90
50105;BME280;47690;39.202;-77.198;2022-07-18T04:45:20;100088.03;;;26.08;90.99
50105;BME280;47690;39.202;-77.198;2022-07-18T04:48:22;100090.69;;;26.08;90.42
50105;BME280;47690;39.202;-77.198;2022-07-18T04:51:01;100090.09;;;26.04;91.01
50105;BME280;47690;39.202;-77.198;2022-07-18T04:53:42;100097.06;;;26.05;90.78
50105;BME280;47690;39.202;-77.198;2022-07-18T04:56:28;100098.84;;;26.04;90.90
50105;BME280;47690;39.202;-77.198;2022-07-18T04:59:10;100095.38;;;26.04;91.01
50105;BME280;47690;39.202;-77.198;2022-07-18T05:01:49;100091.88;;;26.03;90.75
50105;BME280;47690;39.202;-77.198;2022-07-18T05:04:33;100090.34;;;26.01;90.71
50105;BME280;47690;39.202;-77.198;2022-07-18T05:07:14;100093.94;;;26.00;90.85
50105;BME280;47690;39.202;-77.198;2022-07-18T05:10:01;100094.06;;;25.98;91.05
50105;BME280;47690;39.202;-77.198;2022-07-18T05:12:53;100093.38;;;25.96;90.88
50105;BME280;47690;39.202;-77.198;2022-07-18T05:15:43;100091.00;;;25.93;90.71
50105;BME280;47690;39.202;-77.198;2022-07-18T05:18:21;100092.94;;;25.91;91.24
50105;BME280;47690;39.202;-77.198;2022-07-18T05:21:05;100097.34;;;25.90;90.74
50105;BME280;47690;39.202;-77.198;2022-07-18T05:23:34;100096.66;;;25.88;91.00
50105;BME280;47690;39.202;-77.198;2022-07-18T05:26:14;100093.88;;;25.90;90.91
50105;BME280;47690;39.202;-77.198;2022-07-18T05:29:22;100083.19;;;25.91;90.93
50105;BME280;47690;39.202;-77.198;2022-07-18T05:31:58;100075.41;;;25.90;91.48
50105;BME280;47690;39.202;-77.198;2022-07-18T05:34:48;100074.56;;;25.89;91.36
50105;BME280;47690;39.202;-77.198;2022-07-18T05:37:48;100072.19;;;25.86;91.05
50105;BME280;47690;39.202;-77.198;2022-07-18T05:41:27;100073.28;;;25.84;91.11
50105;BME280;47690;39.202;-77.198;2022-07-18T05:44:32;100075.59;;;25.77;91.25
50105;BME280;47690;39.202;-77.198;2022-07-18T05:47:53;100072.38;;;25.73;91.02
50105;BME280;47690;39.202;-77.198;2022-07-18T05:51:08;100065.53;;;25.71;91.56
50105;BME280;47690;39.202;-77.198;2022-07-18T05:53:53;100067.59;;;25.67;91.71
50105;BME280;47690;39.202;-77.198;2022-07-18T05:56:26;100063.28;;;25.66;91.48
50105;BME280;47690;39.202;-77.198;2022-07-18T05:59:22;100058.97;;;25.65;91.50
50105;BME280;47690;39.202;-77.198;2022-07-18T06:02:14;100053.00;;;25.63;91.68
50105;BME280;47690;39.202;-77.198;2022-07-18T06:04:54;100044.34;;;25.61;91.66
50105;BME280;47690;39.202;-77.198;2022-07-18T06:08:05;100044.50;;;25.59;91.42
50105;BME280;47690;39.202;-77.198;2022-07-18T06:10:49;100035.84;;;25.57;91.46
50105;BME280;47690;39.202;-77.198;2022-07-18T06:13:38;100031.44;;;25.58;91.78
50105;BME280;47690;39.202;-77.198;2022-07-18T06:16:22;100024.72;;;25.54;91.96
50105;BME280;47690;39.202;-77.198;2022-07-18T06:19:25;100024.94;;;25.50;91.75
50105;BME280;47690;39.202;-77.198;2022-07-18T06:22:14;100018.25;;;25.46;91.92
50105;BME280;47690;39.202;-77.198;2022-07-18T06:25:03;100012.16;;;25.46;91.85
50105;BME280;47690;39.202;-77.198;2022-07-18T06:27:48;100008.06;;;25.42;92.42
50105;BME280;47690;39.202;-77.198;2022-07-18T06:30:21;100008.81;;;25.44;92.13
50105;BME280;47690;39.202;-77.198;2022-07-18T06:33:06;100002.69;;;25.43;92.21
50105;BME280;47690;39.202;-77.198;2022-07-18T06:36:33;100007.69;;;25.46;92.38
50105;BME280;47690;39.202;-77.198;2022-07-18T06:39:25;99993.00;;;25.44;92.13
50105;BME280;47690;39.202;-77.198;2022-07-18T06:42:28;99995.75;;;25.42;92.37
50105;BME280;47690;39.202;-77.198;2022-07-18T06:45:32;99981.00;;;25.40;92.33
50105;BME280;47690;39.202;-77.198;2022-07-18T06:48:25;99978.75;;;25.35;92.44
50105;BME280;47690;39.202;-77.198;2022-07-18T06:51:28;99985.22;;;25.31;92.35
50105;BME280;47690;39.202;-77.198;2022-07-18T06:54:35;99986.91;;;25.32;92.65
50105;BME280;47690;39.202;-77.198;2022-07-18T06:57:45;99983.56;;;25.30;92.53
50105;BME280;47690;39.202;-77.198;2022-07-18T07:00:56;99981.03;;;25.28;92.64
50105;BME280;47690;39.202;-77.198;2022-07-18T07:04:02;99971.84;;;25.22;92.55
50105;BME280;47690;39.202;-77.198;2022-07-18T07:07:20;99978.09;;;25.21;92.92
50105;BME280;47690;39.202;-77.198;2022-07-18T07:10:03;99981.69;;;25.20;92.89
50105;BME280;47690;39.202;-77.198;2022-07-18T07:13:53;99985.16;;;25.21;92.75
50105;BME280;47690;39.202;-77.198;2022-07-18T07:17:10;99980.25;;;25.16;92.48
50105;BME280;47690;39.202;-77.198;2022-07-18T07:20:14;99983.03;;;25.15;92.39
50105;BME280;47690;39.202;-77.198;2022-07-18T07:23:49;99989.38;;;25.12;92.33
50105;BME280;47690;39.202;-77.198;2022-07-18T07:26:24;99976.44;;;25.09;92.58
50105;BME280;47690;39.202;-77.198;2022-07-18T07:29:02;99958.38;;;25.04;92.43
50105;BME280;47690;39.202;-77.198;2022-07-18T07:32:19;99972.50;;;25.03;93.09
50105;BME280;47690;39.202;-77.198;2022-07-18T07:35:14;99966.41;;;25.03;93.14
50105;BME280;47690;39.202;-77.198;2022-07-18T07:38:05;99963.91;;;25.01;92.89
50105;BME280;47690;39.202;-77.198;2022-07-18T07:41:32;99967.34;;;25.02;92.94
50105;BME280;47690;39.202;-77.198;2022-07-18T07:44:39;99972.75;;;25.00;93.27
50105;BME280;47690;39.202;-77.198;2022-07-18T07:48:01;99967.63;;;24.99;93.35
50105;BME280;47690;39.202;-77.198;2022-07-18T07:51:23;99968.81;;;24.94;93.04
50105;BME280;47690;39.202;-77.198;2022-07-18T07:54:47;99963.69;;;24.93;92.98
50105;BME280;47690;39.202;-77.198;2022-07-18T07:58:20;99957.81;;;24.89;93.40
50105;BME280;47690;39.202;-77.198;2022-07-18T08:01:25;99960.84;;;24.85;93.63
50105;BME280;47690;39.202;-77.198;2022-07-18T08:04:18;99952.19;;;24.82;93.66
50105;BME280;47690;39.202;-77.198;2022-07-18T08:07:08;99951.56;;;24.79;93.92
50105;BME280;47690;39.202;-77.198;2022-07-18T08:09:58;99942.97;;;24.77;93.61
50105;BME280;47690;39.202;-77.198;2022-07-18T08:13:36;99935.06;;;24.77;94.11
50105;BME280;47690;39.202;-77.198;2022-07-18T08:16:40;99933.50;;;24.74;93.44
50105;BME280;47690;39.202;-77.198;2022-07-18T08:19:49;99931.72;;;24.75;93.70
50105;BME280;47690;39.202;-77.198;2022-07-18T08:22:22;99933.50;;;24.74;93.82
50105;BME280;47690;39.202;-77.198;2022-07-18T08:25:05;99933.41;;;24.76;93.64
50105;BME280;47690;39.202;-77.198;2022-07-18T08:27:41;99942.25;;;24.75;93.61
50105;BME280;47690;39.202;-77.198;2022-07-18T08:30:53;99934.34;;;24.75;93.97
50105;BME280;47690;39.202;-77.198;2022-07-18T08:33:40;99933.50;;;24.74;93.51
50105;BME280;47690;39.202;-77.198;2022-07-18T08:37:04;99942.38;;;24.73;93.72
50105;BME280;47690;39.202;-77.198;2022-07-18T08:39:48;99953.88;;;24.72;93.54
50105;BME280;47690;39.202;-77.198;2022-07-18T08:42:23;99956.50;;;24.72;93.92
50105;BME280;47690;39.202;-77.198;2022-07-18T08:45:16;99958.28;;;24.72;93.61
50105;BME280;47690;39.202;-77.198;2022-07-18T08:48:20;99957.31;;;24.73;93.38
50105;BME280;47690;39.202;-77.198;2022-07-18T08:50:50;99954.94;;;24.69;93.92
50105;BME280;47690;39.202;-77.198;2022-07-18T08:53:20;99955.91;;;24.68;93.76
50105;BME280;47690;39.202;-77.198;2022-07-18T08:56:14;99957.59;;;24.69;93.96
50105;BME280;47690;39.202;-77.198;2022-07-18T08:58:46;99951.47;;;24.69;94.08
50105;BME280;47690;39.202;-77.198;2022-07-18T09:01:19;99954.09;;;24.69;93.97
50105;BME280;47690;39.202;-77.198;2022-07-18T09:03:50;99952.44;;;24.68;94.00
50105;BME280;47690;39.202;-77.198;2022-07-18T09:06:49;99962.84;;;24.69;94.33
50105;BME280;47690;39.202;-77.198;2022-07-18T09:09:22;99964.53;;;24.71;93.92
50105;BME280;47690;39.202;-77.198;2022-07-18T09:12:03;99964.41;;;24.72;94.12
50105;BME280;47690;39.202;-77.198;2022-07-18T09:14:39;99953.16;;;24.70;94.16
50105;BME280;47690;39.202;-77.198;2022-07-18T09:18:02;99954.09;;;24.69;94.26
50105;BME280;47690;39.202;-77.198;2022-07-18T09:20:18;99936.03;;;24.64;94.37
50105;BME280;47690;39.202;-77.198;2022-07-18T09:22:49;99933.66;;;24.61;94.20
50105;BME280;47690;39.202;-77.198;2022-07-18T09:25:21;99935.31;;;24.62;94.42
50105;BME280;47690;39.202;-77.198;2022-07-18T09:27:53;99932.69;;;24.62;94.72
50105;BME280;47690;39.202;-77.198;2022-07-18T09:30:29;99935.31;;;24.62;94.50
50105;BME280;47690;39.202;-77.198;2022-07-18T09:35:52;99923.00;;;24.63;94.74
50105;BME280;47690;39.202;-77.198;2022-07-18T09:38:29;99924.09;;;24.60;94.68
50105;BME280;47690;39.202;-77.198;2022-07-18T09:40:59;99929.47;;;24.59;94.44
50105;BME280;47690;39.202;-77.198;2022-07-18T09:43:36;99936.41;;;24.60;94.53
50105;BME280;47690;39.202;-77.198;2022-07-18T09:46:08;99936.66;;;24.57;94.45
50105;BME280;47690;39.202;-77.198;2022-07-18T09:48:45;99938.44;;;24.56;94.49
50105;BME280;47690;39.202;-77.198;2022-07-18T09:51:17;99949.81;;;24.57;94.18
50105;BME280;47690;39.202;-77.198;2022-07-18T09:53:48;99962.88;;;24.58;94.29
50105;BME280;47690;39.202;-77.198;2022-07-18T09:56:25;99949.72;;;24.58;94.29
50105;BME280;47690;39.202;-77.198;2022-07-18T09:58:57;99963.00;;;24.57;94.45
50105;BME280;47690;39.202;-77.198;2022-07-18T10:01:46;99966.44;;;24.57;94.34
50105;BME280;47690;39.202;-77.198;2022-07-18T10:04:17;99976.16;;;24.57;94.61
50105;BME280;47690;39.202;-77.198;2022-07-18T10:06:48;99964.78;;;24.56;94.06
50105;BME280;47690;39.202;-77.198;2022-07-18T10:09:32;99957.72;;;24.57;94.82
50105;BME280;47690;39.202;-77.198;2022-07-18T10:12:05;99940.38;;;24.54;94.60
50105;BME280;47690;39.202;-77.198;2022-07-18T10:14:37;99935.00;;;24.55;94.57
50105;BME280;47690;39.202;-77.198;2022-07-18T10:17:10;99926.94;;;24.57;95.04
50105;BME280;47690;39.202;-77.198;2022-07-18T10:19:40;99933.91;;;24.58;94.71
50105;BME280;47690;39.202;-77.198;2022-07-18T10:22:25;99932.00;;;24.60;95.01
50105;BME280;47690;39.202;-77.198;2022-07-18T10:25:14;99926.72;;;24.60;94.75
50105;BME280;47690;39.202;-77.198;2022-07-18T10:28:07;99928.50;;;24.60;94.91
50105;BME280;47690;39.202;-77.198;2022-07-18T10:31:17;99924.81;;;24.62;95.10
50105;BME280;47690;39.202;-77.198;2022-07-18T10:33:48;99928.41;;;24.61;95.30
50105;BME280;47690;39.202;-77.198;2022-07-18T10:36:22;99930.06;;;24.62;95.42
50105;BME280;47690;39.202;-77.198;2022-07-18T10:44:38;99940.00;;;24.70;95.47
50105;BME280;47690;39.202;-77.198;2022-07-18T10:47:31;99949.69;;;24.69;95.62
50105;BME280;47690;39.202;-77.198;2022-07-18T10:50:05;99943.56;;;24.69;95.28
50105;BME280;47690;39.202;-77.198;2022-07-18T10:57:37;99950.53;;;24.70;95.44
50105;BME280;47690;39.202;-77.198;2022-07-18T11:03:11;99960.69;;;24.75;95.52
50105;BME280;47690;39.202;-77.198;2022-07-18T11:06:01;99949.09;;;24.77;95.50
50105;BME280;47690;39.202;-77.198;2022-07-18T11:08:34;99951.84;;;24.76;95.88
50105;BME280;47690;39.202;-77.198;2022-07-18T11:11:13;99952.34;;;24.81;96.31
50105;BME280;47690;39.202;-77.198;2022-07-18T11:13:52;99953.28;;;24.80;95.80
50105;BME280;47690;39.202;-77.198;2022-07-18T11:16:25;99953.03;;;24.83;96.17
50105;BME280;47690;39.202;-77.198;2022-07-18T11:21:30;99964.75;;;24.90;96.35
50105;BME280;47690;39.202;-77.198;2022-07-18T11:24:16;99964.66;;;24.92;96.29
50105;BME280;47690;39.202;-77.198;2022-07-18T11:26:48;99970.50;;;24.95;96.26
50105;BME280;47690;39.202;-77.198;2022-07-18T11:29:19;99975.63;;;24.97;96.09
50105;BME280;47690;39.202;-77.198;2022-07-18T11:31:53;99967.50;;;25.00;96.57
50105;BME280;47690;39.202;-77.198;2022-07-18T11:34:29;99969.75;;;25.05;97.02
50105;BME280;47690;39.202;-77.198;2022-07-18T11:37:12;99959.09;;;25.06;97.11
50105;BME280;47690;39.202;-77.198;2022-07-18T11:39:42;99952.59;;;25.10;97.19
50105;BME280;47690;39.202;-77.198;2022-07-18T11:42:35;99970.28;;;25.20;98.25
50105;BME280;47690;39.202;-77.198;2022-07-18T11:45:10;99965.03;;;25.20;97.50
50105;BME280;47690;39.202;-77.198;2022-07-18T11:50:18;99966.06;;;25.29;97.70
50105;BME280;47690;39.202;-77.198;2022-07-18T11:52:57;99969.28;;;25.32;98.18
50105;BME280;47690;39.202;-77.198;2022-07-18T11:55:36;99973.47;;;25.35;97.93
50105;BME280;47690;39.202;-77.198;2022-07-18T11:58:25;99969.50;;;25.41;98.46
50105;BME280;47690;39.202;-77.198;2022-07-18T12:01:02;99975.63;;;25.41;98.06
50105;BME280;47690;39.202;-77.198;2022-07-18T12:03:49;99974.53;;;25.44;98.27
50105;BME280;47690;39.202;-77.198;2022-07-18T12:06:21;99975.13;;;25.47;98.36
50105;BME280;47690;39.202;-77.198;2022-07-18T12:08:54;99975.81;;;25.49;98.70
50105;BME280;47690;39.202;-77.198;2022-07-18T12:11:37;99971.97;;;25.54;98.17
50105;BME280;47690;39.202;-77.198;2022-07-18T12:14:19;99980.63;;;25.56;98.62
50105;BME280;47690;39.202;-77.198;2022-07-18T12:16:57;99962.75;;;25.59;98.96
50105;BME280;47690;39.202;-77.198;2022-07-18T12:20:14;99963.19;;;25.64;98.56
50105;BME280;47690;39.202;-77.198;2022-07-18T12:23:07;99952.25;;;25.69;98.77
50105;BME280;47690;39.202;-77.198;2022-07-18T12:25:57;99947.56;;;25.73;98.91
50105;BME280;47690;39.202;-77.198;2022-07-18T12:29:13;99961.19;;;25.78;98.76
50105;BME280;47690;39.202;-77.198;2022-07-18T12:31:57;99960.94;;;25.81;99.25
50105;BME280;47690;39.202;-77.198;2022-07-18T12:35:10;99955.56;;;25.92;98.88
50105;BME280;47690;39.202;-77.198;2022-07-18T12:38:06;99947.25;;;25.87;98.50
50105;BME280;47690;39.202;-77.198;2022-07-18T12:41:30;99942.53;;;25.91;98.73
50105;BME280;47690;39.202;-77.198;2022-07-18T12:44:21;99933.50;;;25.94;98.84
50105;BME280;47690;39.202;-77.198;2022-07-18T12:47:16;99922.44;;;26.00;99.21
50105;BME280;47690;39.202;-77.198;2022-07-18T12:50:13;99921.06;;;26.05;99.22
50105;BME280;47690;39.202;-77.198;2022-07-18T12:52:49;99919.97;;;26.08;98.65
50105;BME280;47690;39.202;-77.198;2022-07-18T12:56:04;99915.41;;;26.20;99.01
50105;BME280;47690;39.202;-77.198;2022-07-18T12:59:18;99920.66;;;26.31;97.94
50105;BME280;47690;39.202;-77.198;2022-07-18T13:02:00;99919.25;;;26.37;98.50
50105;BME280;47690;39.202;-77.198;2022-07-18T13:04:48;99922.22;;;26.44;97.93
50105;BME280;47690;39.202;-77.198;2022-07-18T13:07:22;99913.75;;;26.50;98.11
50105;BME280;47690;39.202;-77.198;2022-07-18T13:10:11;99924.59;;;26.57;98.08
50105;BME280;47690;39.202;-77.198;2022-07-18T13:13:17;99921.72;;;26.70;97.73
50105;BME280;47690;39.202;-77.198;2022-07-18T13:16:29;99933.16;;;26.80;97.51
50105;BME280;47690;39.202;-77.198;2022-07-18T13:19:33;99925.25;;;26.90;96.67
50105;BME280;47690;39.202;-77.198;2022-07-18T13:22:27;99929.41;;;26.93;96.47
50105;BME280;47690;39.202;-77.198;2022-07-18T13:26:21;99928.19;;;26.97;96.27
50105;BME280;47690;39.202;-77.198;2022-07-18T13:29:21;99927.50;;;26.95;96.21
50105;BME280;47690;39.202;-77.198;2022-07-18T13:32:02;99923.88;;;26.96;96.03
50105;BME280;47690;39.202;-77.198;2022-07-18T13:35:01;99926.91;;;27.01;96.42
50105;BME280;47690;39.202;-77.198;2022-07-18T13:37:45;99926.38;;;27.07;96.23
50105;BME280;47690;39.202;-77.198;2022-07-18T13:40:21;99920.09;;;27.18;96.20
50105;BME280;47690;39.202;-77.198;2022-07-18T13:43:02;99919.69;;;27.33;95.83
50105;BME280;47690;39.202;-77.198;2022-07-18T13:45:48;99902.97;;;27.42;95.69
50105;BME280;47690;39.202;-77.198;2022-07-18T13:48:38;99906.31;;;27.54;95.49
50105;BME280;47690;39.202;-77.198;2022-07-18T13:51:57;99905.19;;;27.66;94.84
50105;BME280;47690;39.202;-77.198;2022-07-18T13:54:43;99898.91;;;27.67;94.57
50105;BME280;47690;39.202;-77.198;2022-07-18T13:58:14;99887.06;;;27.72;93.48
50105;BME280;47690;39.202;-77.198;2022-07-18T14:01:21;99881.47;;;27.75;93.24
50105;BME280;47690;39.202;-77.198;2022-07-18T14:03:59;99882.19;;;27.77;93.28
50105;BME280;47690;39.202;-77.198;2022-07-18T14:07:02;99883.16;;;27.76;93.28
50105;BME280;47690;39.202;-77.198;2022-07-18T14:10:07;99880.09;;;27.80;92.58
50105;BME280;47690;39.202;-77.198;2022-07-18T14:12:51;99879.25;;;27.80;92.94
50105;BME280;47690;39.202;-77.198;2022-07-18T14:15:49;99887.59;;;27.85;92.54
50105;BME280;47690;39.202;-77.198;2022-07-18T14:18:37;99885.63;;;27.87;92.62
50105;BME280;47690;39.202;-77.198;2022-07-18T14:21:29;99878.22;;;27.91;92.16
50105;BME280;47690;39.202;-77.198;2022-07-18T14:24:37;99881.72;;;27.91;92.00
50105;BME280;47690;39.202;-77.198;2022-07-18T14:27:58;99888.69;;;27.92;91.90
50105;BME280;47690;39.202;-77.198;2022-07-18T14:30:52;99888.38;;;27.95;92.30
50105;BME280;47690;39.202;-77.198;2022-07-18T14:33:44;99885.72;;;27.95;92.17
50105;BME280;47690;39.202;-77.198;2022-07-18T14:36:23;99892.69;;;27.97;92.42
50105;BME280;47690;39.202;-77.198;2022-07-18T14:39:37;99883.75;;;27.98;92.44
50105;BME280;47690;39.202;-77.198;2022-07-18T14:42:46;99884.16;;;28.03;92.09
50105;BME280;47690;39.202;-77.198;2022-07-18T14:45:24;99872.31;;;28.07;92.03
50105;BME280;47690;39.202;-77.198;2022-07-18T14:48:10;99875.34;;;28.12;92.12
50105;BME280;47690;39.202;-77.198;2022-07-18T14:51:09;99868.47;;;28.19;91.83
50105;BME280;47690;39.202;-77.198;2022-07-18T14:54:21;99860.69;;;28.28;91.88
50105;BME280;47690;39.202;-77.198;2022-07-18T14:57:16;99855.59;;;28.34;91.33
50105;BME280;47690;39.202;-77.198;2022-07-18T15:00:08;99858.28;;;28.53;90.20